Time;durP1;ratioP1;P1;durP2;ratioP2;P2;SDS_P1;SDS_P2;PMS_P1;PMS_P2;Temp;Humidity;BMP_temperature;BMP_pressure;BME280_temperature;BME280_humidity;BME280_pressure;Samples;Min_cycle;Max_cycle;Signal;HPM_P1;HPM_P2
2021/12/26 00:01:08;;;;;;;3.78;1.83;;;;;;;-2.19;69.74;100879.31;5095591;28;20102;-35
2021/12/26 00:03:34;;;;;;;3.42;1.88;;;;;;;-2.31;68.92;100886.59;5095624;28;20024;-35
2021/12/26 00:06:05;;;;;;;2.90;1.55;;;;;;;-2.26;69.71;100887.00;5095399;28;20035;-35
2021/12/26 00:08:31;;;;;;;5.40;2.20;;;;;;;-2.34;68.83;100890.41;5094936;28;20020;-35
2021/12/26 00:10:57;;;;;;;2.75;1.77;;;;;;;-2.33;68.86;100891.22;5095922;28;20048;-35
2021/12/26 00:13:22;;;;;;;3.20;1.70;;;;;;;-2.31;69.81;100883.94;5095313;28;20062;-35
2021/12/26 00:15:48;;;;;;;4.00;2.10;;;;;;;-2.37;69.54;100864.19;5095700;28;20024;-35
2021/12/26 00:18:13;;;;;;;2.88;1.65;;;;;;;-2.21;69.76;100875.97;5095127;28;20043;-35
2021/12/26 00:20:40;;;;;;;3.87;2.30;;;;;;;-2.26;69.21;100880.88;5095800;28;20078;-35
2021/12/26 00:23:07;;;;;;;6.55;2.05;;;;;;;-2.25;69.87;100870.09;5094962;28;20032;-35
2021/12/26 00:25:33;;;;;;;3.63;1.80;;;;;;;-2.19;70.44;100866.91;5094927;28;20119;-35
2021/12/26 00:28:00;;;;;;;4.53;2.42;;;;;;;-2.27;69.51;100873.91;5094831;28;20036;-35
2021/12/26 00:30:26;;;;;;;3.20;1.90;;;;;;;-2.16;71.14;100866.59;5094813;28;20119;-35
2021/12/26 00:32:51;;;;;;;3.83;2.22;;;;;;;-2.19;70.06;100843.06;5095485;28;20055;-35
2021/12/26 00:35:20;;;;;;;4.67;2.07;;;;;;;-2.14;70.89;100847.91;5095068;28;20427;-35
2021/12/26 00:37:47;;;;;;;4.57;1.92;;;;;;;-2.09;70.88;100864.19;5094672;28;20054;-35
2021/12/26 00:40:14;;;;;;;3.35;2.00;;;;;;;-2.10;72.40;100844.81;5094361;28;20496;-35
2021/12/26 00:42:40;;;;;;;4.53;2.10;;;;;;;-2.18;68.65;100842.06;5094415;28;20073;-35
2021/12/26 00:45:07;;;;;;;5.07;2.00;;;;;;;-2.09;69.86;100849.13;5094567;28;20102;-35
2021/12/26 00:47:33;;;;;;;3.65;1.90;;;;;;;-2.24;69.58;100831.25;5094075;28;20036;-35
2021/12/26 00:49:59;;;;;;;;;;;;;;;-2.10;69.48;100841.31;5094833;28;20182;-35
2021/12/26 00:52:24;;;;;;;4.50;2.13;;;;;;;-2.14;70.35;100842.63;5093375;28;19986;-35
2021/12/26 00:54:50;;;;;;;4.30;2.40;;;;;;;-2.14;70.83;100845.25;5095154;28;20512;-35
2021/12/26 00:57:15;;;;;;;3.70;1.97;;;;;;;-2.08;70.05;100856.09;5093941;28;20028;-35
2021/12/26 00:59:41;;;;;;;4.53;2.07;;;;;;;-2.37;69.30;100842.16;5094958;28;20031;-35
2021/12/26 01:02:06;;;;;;;3.43;2.03;;;;;;;-2.32;69.91;100850.50;5094245;28;20329;-35
2021/12/26 01:04:31;;;;;;;3.90;1.80;;;;;;;-2.26;70.21;100851.72;5093979;28;20035;-35
2021/12/26 01:06:57;;;;;;;5.60;2.13;;;;;;;-2.47;69.88;100821.03;5093689;28;20028;-35
2021/12/26 01:09:27;;;;;;;4.32;2.20;;;;;;;-2.19;71.32;100863.41;5094597;28;20028;-35
2021/12/26 01:11:56;;;;;;;5.50;2.38;;;;;;;-2.31;69.88;100859.28;5094414;28;20472;-35
2021/12/26 01:14:29;;;;;;;3.13;1.92;;;;;;;-2.32;70.26;100855.81;5094825;28;20474;-35
2021/12/26 01:17:04;;;;;;;6.75;2.25;;;;;;;-2.28;70.69;100857.19;5094209;28;20032;-35
2021/12/26 01:19:43;;;;;;;4.20;2.20;;;;;;;-2.22;71.03;100861.88;5093613;28;20478;-35
2021/12/26 01:22:09;;;;;;;4.30;2.10;;;;;;;-2.25;70.80;100856.88;5094261;28;20024;-35
2021/12/26 01:24:34;;;;;;;3.42;2.10;;;;;;;-2.16;70.01;100865.75;5094314;28;20047;-35
2021/12/26 01:27:01;;;;;;;4.63;2.60;;;;;;;-2.18;70.78;100857.97;5093669;28;20024;-35
2021/12/26 01:29:26;;;;;;;6.05;2.72;;;;;;;-2.15;69.20;100856.81;5094184;28;20059;-35
2021/12/26 01:31:52;;;;;;;4.70;2.03;;;;;;;-2.06;71.39;100861.22;5093470;28;20392;-35
2021/12/26 01:34:17;;;;;;;3.80;2.15;;;;;;;-2.16;69.44;100865.75;5093321;28;20030;-35
2021/12/26 01:36:42;;;;;;;3.73;2.17;;;;;;;-2.43;70.00;100837.47;5093565;28;20039;-35
2021/12/26 01:39:09;;;;;;;4.80;2.10;;;;;;;-2.30;70.70;100848.53;5093680;28;20024;-34
2021/12/26 01:41:39;;;;;;;3.95;2.38;;;;;;;-2.34;70.12;100863.91;5092312;28;20032;-35
2021/12/26 01:44:08;;;;;;;4.45;2.17;;;;;;;-2.23;71.35;100859.38;5093497;28;20072;-35
2021/12/26 01:46:34;;;;;;;4.45;2.10;;;;;;;-2.19;70.84;100853.66;5093616;28;20024;-35
2021/12/26 01:49:12;;;;;;;5.35;2.22;;;;;;;-2.20;70.97;100851.13;5093729;28;20028;-35
2021/12/26 01:51:39;;;;;;;6.22;2.72;;;;;;;-2.17;71.21;100851.69;5093705;28;20081;-35
2021/12/26 01:54:09;;;;;;;5.03;2.65;;;;;;;-2.28;69.35;100843.09;5094134;28;20028;-35
2021/12/26 01:56:35;;;;;;;4.60;2.58;;;;;;;-2.22;70.27;100847.81;5093739;28;20328;-35
2021/12/26 01:59:00;;;;;;;6.88;2.63;;;;;;;-2.35;71.10;100826.94;5093734;28;20024;-35
2021/12/26 02:01:26;;;;;;;5.67;2.70;;;;;;;-2.44;70.53;100828.69;5093327;28;20030;-35
2021/12/26 02:03:52;;;;;;;8.20;2.67;;;;;;;-2.41;71.09;100835.50;5093506;28;20388;-35
2021/12/26 02:06:18;;;;;;;4.13;2.53;;;;;;;-2.41;71.01;100840.78;5093206;28;20028;-35
2021/12/26 02:08:44;;;;;;;6.15;2.40;;;;;;;-2.38;70.63;100840.50;5093217;28;20036;-35
2021/12/26 02:11:09;;;;;;;5.28;2.88;;;;;;;-2.30;71.33;100840.59;5093313;28;20062;-35
2021/12/26 02:13:37;;;;;;;4.80;2.58;;;;;;;-2.27;72.50;100837.66;5093491;28;20032;-35
2021/12/26 02:16:04;;;;;;;5.32;2.50;;;;;;;-2.41;71.03;100825.72;5093063;28;20032;-35
2021/12/26 02:18:29;;;;;;;;;;;;;;;-2.23;71.87;100846.97;5093657;28;20070;-35
2021/12/26 02:23:27;;;;;;;5.37;2.70;;;;;;;-2.50;70.35;100828.44;5093145;28;20270;-35
2021/12/26 02:28:22;;;;;;;4.80;2.58;;;;;;;-2.47;70.45;100826.31;5093041;28;20039;-35
2021/12/26 02:30:48;;;;;;;;;;;;;;;-2.40;70.69;100827.38;5093246;28;20060;-35
2021/12/26 02:33:15;;;;;;;4.85;2.75;;;;;;;-2.37;71.07;100832.41;5092938;28;19950;-35
2021/12/26 02:35:41;;;;;;;5.03;3.13;;;;;;;-2.38;70.76;100821.97;5093217;28;20028;-35
2021/12/26 02:38:07;;;;;;;;;;;;;;;-2.38;70.46;100832.56;5093139;28;20024;-35
2021/12/26 02:40:33;;;;;;;4.53;2.53;;;;;;;-2.33;70.96;100839.06;5093175;28;20412;-35
2021/12/26 02:42:58;;;;;;;3.65;2.00;;;;;;;-2.33;74.53;100825.84;5093182;28;20020;-35
2021/12/26 02:45:23;;;;;;;5.73;2.70;;;;;;;-2.31;73.20;100830.97;5092573;28;20032;-35
2021/12/26 02:47:50;;;;;;;4.40;2.13;;;;;;;-2.31;71.25;100830.16;5092918;28;20032;-35
2021/12/26 02:50:26;;;;;;;3.72;2.40;;;;;;;-2.26;72.63;100822.59;5093336;28;20077;-35
2021/12/26 02:52:53;;;;;;;4.93;2.53;;;;;;;-2.21;71.96;100820.31;5092865;28;20028;-35
2021/12/26 02:55:20;;;;;;;3.88;2.22;;;;;;;-2.11;73.18;100815.78;5093019;28;20413;-35
2021/12/26 02:57:47;;;;;;;4.00;2.30;;;;;;;-2.04;73.60;100818.69;5092728;28;20103;-35
2021/12/26 03:00:16;;;;;;;5.80;2.53;;;;;;;-1.94;73.59;100816.81;5092720;28;20158;-35
2021/12/26 03:02:47;;;;;;;5.60;2.45;;;;;;;-2.13;70.85;100825.72;5092727;28;20387;-35
2021/12/26 03:05:13;;;;;;;5.68;2.28;;;;;;;-2.12;71.93;100814.97;5092267;28;20035;-35
2021/12/26 03:07:39;;;;;;;3.05;2.03;;;;;;;-2.05;72.77;100825.78;5092604;28;20036;-35
2021/12/26 03:10:09;;;;;;;5.80;2.73;;;;;;;-2.37;70.77;100789.19;5092514;28;20047;-35
2021/12/26 03:12:40;;;;;;;4.82;2.17;;;;;;;-2.23;70.82;100807.25;5092156;28;20305;-35
2021/12/26 03:15:05;;;;;;;4.07;2.40;;;;;;;-2.28;70.88;100829.88;5093956;28;20055;-35
2021/12/26 03:17:31;;;;;;;5.28;2.45;;;;;;;-2.38;70.60;100825.44;5096218;28;20028;-35
2021/12/26 03:19:56;;;;;;;4.23;2.20;;;;;;;-2.35;70.97;100817.19;5096771;28;20024;-35
2021/12/26 03:22:25;;;;;;;3.77;2.40;;;;;;;-2.30;70.85;100815.91;5095944;28;20036;-35
2021/12/26 03:24:50;;;;;;;4.45;2.00;;;;;;;-2.28;71.94;100819.25;5096329;28;20024;-35
2021/12/26 03:27:15;;;;;;;3.97;2.13;;;;;;;-2.32;71.36;100805.47;5096365;28;20463;-35
2021/12/26 03:29:41;;;;;;;4.00;2.53;;;;;;;-2.26;71.22;100809.34;5096679;28;20016;-35
2021/12/26 03:32:07;;;;;;;4.37;2.60;;;;;;;-2.36;71.33;100797.00;5095929;28;20017;-35
2021/12/26 03:34:32;;;;;;;4.20;2.40;;;;;;;-2.36;71.37;100790.84;5095559;28;20028;-35
2021/12/26 03:36:58;;;;;;;5.43;2.83;;;;;;;-2.43;72.40;100780.03;5095969;28;20067;-35
2021/12/26 03:39:24;;;;;;;3.93;2.33;;;;;;;-2.49;71.09;100793.88;5096397;28;20050;-35
2021/12/26 03:41:50;;;;;;;4.78;2.72;;;;;;;-2.57;72.18;100785.81;5096354;28;20056;-35
2021/12/26 03:44:16;;;;;;;3.85;2.30;;;;;;;-2.52;71.28;100795.97;5096270;28;20032;-35
2021/12/26 03:46:42;;;;;;;3.33;2.28;;;;;;;-2.70;71.29;100793.25;5095836;28;20050;-35
2021/12/26 03:49:07;;;;;;;3.58;2.25;;;;;;;-2.72;72.45;100790.78;5096220;28;20086;-35
2021/12/26 03:51:34;;;;;;;4.00;2.50;;;;;;;-2.83;72.43;100782.16;5095640;28;20052;-35
2021/12/26 03:54:00;;;;;;;5.18;2.60;;;;;;;-2.68;73.58;100797.44;5095299;28;20020;-35
2021/12/26 03:56:26;;;;;;;6.85;2.45;;;;;;;-2.74;72.41;100784.78;5094151;28;20455;-35
2021/12/26 03:58:51;;;;;;;5.10;2.17;;;;;;;-2.63;72.87;100797.00;5095789;28;20115;-35
2021/12/26 04:01:16;;;;;;;4.67;2.70;;;;;;;-2.80;72.12;100755.41;5095470;28;20024;-35
2021/12/26 04:03:42;;;;;;;5.13;2.73;;;;;;;-2.72;71.93;100784.66;5094857;28;20040;-35
2021/12/26 04:06:07;;;;;;;6.73;2.53;;;;;;;-2.62;72.41;100796.03;5095244;28;20032;-35
2021/12/26 04:08:33;;;;;;;5.57;2.27;;;;;;;-2.60;73.84;100783.47;5096167;28;20492;-35
2021/12/26 04:10:58;;;;;;;4.57;2.90;;;;;;;-2.54;73.19;100784.69;5095265;28;20294;-35
2021/12/26 04:13:24;;;;;;;4.23;2.30;;;;;;;-2.62;74.20;100762.44;5095807;28;20475;-35
2021/12/26 04:15:49;;;;;;;4.50;3.10;;;;;;;-2.50;73.09;100781.59;5095256;28;20051;-35
2021/12/26 04:18:14;;;;;;;5.00;2.70;;;;;;;-2.52;71.93;100780.91;5095042;28;20073;-35
2021/12/26 04:20:40;;;;;;;4.87;2.73;;;;;;;-2.61;73.19;100774.69;5095173;28;20121;-35
2021/12/26 04:23:06;;;;;;;4.85;2.60;;;;;;;-2.62;72.36;100786.25;5094706;28;20561;-35
2021/12/26 04:25:31;;;;;;;6.15;3.08;;;;;;;-2.63;73.05;100781.13;5095039;28;20226;-35
2021/12/26 04:27:57;;;;;;;5.93;2.80;;;;;;;-2.74;72.89;100776.00;5094989;28;20463;-35
2021/12/26 04:30:24;;;;;;;7.53;2.40;;;;;;;-2.70;73.30;100770.28;5095637;28;20028;-35
2021/12/26 04:32:49;;;;;;;3.85;2.45;;;;;;;-2.63;73.76;100771.38;5094830;28;20107;-34
2021/12/26 04:35:16;;;;;;;4.35;2.70;;;;;;;-2.68;74.01;100764.84;5094692;28;20115;-35
2021/12/26 04:37:42;;;;;;;4.82;2.45;;;;;;;-2.66;72.34;100778.75;5094720;28;20093;-35
2021/12/26 04:40:10;;;;;;;5.57;3.45;;;;;;;-2.75;73.36;100780.47;5094215;28;20048;-35
2021/12/26 04:42:38;;;;;;;4.25;2.70;;;;;;;-2.89;76.10;100735.94;5094546;28;20031;-35
2021/12/26 04:45:07;;;;;;;4.47;2.72;;;;;;;-2.74;74.50;100776.00;5094795;28;21991;-35
2021/12/26 04:47:32;;;;;;;4.75;3.33;;;;;;;-2.70;74.86;100774.72;5094791;28;20051;-35
2021/12/26 04:49:58;;;;;;;4.17;2.60;;;;;;;-2.93;75.40;100735.44;5095069;28;20059;-35
2021/12/26 04:52:23;;;;;;;4.07;2.40;;;;;;;-2.79;74.49;100762.38;5094436;28;20034;-35
2021/12/26 04:54:49;;;;;;;5.50;2.53;;;;;;;-2.78;74.83;100769.34;5095013;28;20135;-35
2021/12/26 04:57:14;;;;;;;6.40;3.40;;;;;;;-2.95;75.26;100747.13;5094366;28;20024;-35
2021/12/26 04:59:39;;;;;;;4.90;2.70;;;;;;;-2.90;73.75;100785.41;5094676;28;20035;-35
2021/12/26 05:02:08;;;;;;;4.67;2.60;;;;;;;-3.03;74.91;100761.06;5093932;28;20024;-35
2021/12/26 05:04:34;;;;;;;5.28;2.53;;;;;;;-3.16;74.64;100750.00;5094513;28;20422;-35
2021/12/26 05:06:59;;;;;;;4.18;2.53;;;;;;;-3.06;74.82;100769.31;5094162;28;20077;-35
2021/12/26 05:09:24;;;;;;;4.37;2.83;;;;;;;-3.11;74.82;100766.28;5094264;28;20024;-35
2021/12/26 05:11:50;;;;;;;5.00;2.97;;;;;;;-3.00;75.08;100773.19;5094621;28;20048;-35
2021/12/26 05:14:15;;;;;;;5.30;2.33;;;;;;;-3.07;75.89;100765.00;5092364;28;20032;-35
2021/12/26 05:16:40;;;;;;;5.67;2.77;;;;;;;-3.02;75.35;100768.06;5094331;28;20040;-35
2021/12/26 05:19:06;;;;;;;7.20;2.70;;;;;;;-3.16;75.20;100764.06;5094119;28;20421;-35
2021/12/26 05:21:31;;;;;;;4.57;2.80;;;;;;;-3.14;76.28;100764.72;5094078;28;20049;-35
2021/12/26 05:23:56;;;;;;;3.60;2.20;;;;;;;-3.17;75.28;100758.94;5093974;28;20590;-35
2021/12/26 05:26:22;;;;;;;3.23;2.33;;;;;;;-3.25;75.73;100754.34;5093865;28;20032;-35
2021/12/26 05:28:47;;;;;;;3.77;2.13;;;;;;;-3.23;76.00;100754.19;5093927;28;20027;-36
2021/12/26 05:31:12;;;;;;;3.97;2.50;;;;;;;-3.25;75.28;100762.28;5093767;28;20032;-35
2021/12/26 05:33:38;;;;;;;5.70;2.37;;;;;;;-3.22;75.48;100762.00;5094151;28;20028;-35
2021/12/26 05:36:03;;;;;;;4.77;2.47;;;;;;;-3.25;76.36;100756.97;5093581;28;20078;-35
2021/12/26 05:38:29;;;;;;;4.17;2.53;;;;;;;-3.35;76.78;100739.47;5093251;28;20032;-35
2021/12/26 05:40:55;;;;;;;6.30;3.40;;;;;;;-3.28;76.62;100759.91;5094520;28;20035;-35
2021/12/26 05:43:20;;;;;;;4.68;2.60;;;;;;;-3.31;76.06;100752.28;5094421;28;20023;-36
2021/12/26 05:45:46;;;;;;;6.13;2.83;;;;;;;-3.36;76.15;100743.94;5093621;28;20031;-35
2021/12/26 05:48:12;;;;;;;7.35;3.20;;;;;;;-3.41;77.67;100739.09;5094150;28;20036;-35
2021/12/26 05:50:37;;;;;;;5.73;2.93;;;;;;;-3.64;76.34;100704.19;5093880;28;20028;-35
2021/12/26 05:53:02;;;;;;;4.40;2.60;;;;;;;-3.54;77.34;100706.00;5094110;28;20107;-35
2021/12/26 05:55:28;;;;;;;5.60;3.00;;;;;;;-3.43;76.37;100732.25;5093605;28;20082;-35
2021/12/26 05:57:53;;;;;;;5.17;3.10;;;;;;;-3.41;77.06;100731.16;5094022;28;20420;-35
2021/12/26 06:00:19;;;;;;;3.93;2.73;;;;;;;-3.35;76.60;100736.84;5094304;28;20055;-35
2021/12/26 06:02:45;;;;;;;5.90;2.90;;;;;;;-3.30;76.45;100735.44;5093916;28;20368;-35
2021/12/26 06:05:11;;;;;;;6.07;3.17;;;;;;;-3.42;76.05;100726.81;5093616;28;20035;-36
2021/12/26 06:07:36;;;;;;;6.93;2.90;;;;;;;-3.33;77.31;100734.88;5093400;28;20524;-35
2021/12/26 06:10:07;;;;;;;6.33;3.53;;;;;;;-3.62;78.50;100706.69;5093285;28;20036;-35
2021/12/26 06:12:33;;;;;;;5.03;3.28;;;;;;;-3.53;76.76;100724.34;5093782;28;20067;-36
2021/12/26 06:14:58;;;;;;;5.90;2.92;;;;;;;-3.35;78.19;100734.19;5093830;28;20028;-35
2021/12/26 06:17:23;;;;;;;5.43;3.33;;;;;;;-3.35;77.42;100721.81;5093284;28;20504;-35
2021/12/26 06:19:49;;;;;;;6.57;3.00;;;;;;;-3.36;77.04;100733.38;5093812;28;20024;-35
2021/12/26 06:22:16;;;;;;;4.77;3.00;;;;;;;-3.42;76.47;100736.56;5093235;28;20383;-35
2021/12/26 06:24:41;;;;;;;5.88;2.47;;;;;;;-3.42;77.20;100721.53;5093171;28;20024;-35
2021/12/26 06:27:07;;;;;;;4.82;2.63;;;;;;;-3.41;77.62;100719.75;5093083;28;20021;-35
2021/12/26 06:29:32;;;;;;;6.80;3.33;;;;;;;-3.41;77.69;100731.16;5093996;28;20107;-35
2021/12/26 06:31:57;;;;;;;5.10;2.67;;;;;;;-3.62;77.21;100710.16;5093565;28;20028;-35
2021/12/26 06:34:23;;;;;;;4.67;3.03;;;;;;;-3.55;77.34;100728.94;5093445;28;20027;-35
2021/12/26 06:36:48;;;;;;;5.47;3.58;;;;;;;-3.63;77.25;100720.88;5092658;28;20082;-35
2021/12/26 06:39:14;;;;;;;7.57;3.17;;;;;;;-3.58;77.20;100716.00;5093375;28;20027;-35
2021/12/26 06:41:39;;;;;;;5.47;3.33;;;;;;;-3.51;77.63;100732.97;5093353;28;20078;-35
2021/12/26 06:44:07;;;;;;;6.97;3.13;;;;;;;-3.44;77.70;100727.94;5093247;28;20525;-35
2021/12/26 06:46:34;;;;;;;6.45;3.55;;;;;;;-3.51;78.24;100725.06;5093053;28;20031;-35
2021/12/26 06:48:59;;;;;;;7.90;3.17;;;;;;;-3.45;77.43;100729.75;5092953;28;20529;-36
2021/12/26 06:51:25;;;;;;;4.77;3.57;;;;;;;-3.48;77.99;100727.38;5096605;28;20062;-35
2021/12/26 06:53:50;;;;;;;7.00;3.60;;;;;;;-3.46;77.76;100728.09;5096864;28;20020;-35
2021/12/26 06:56:15;;;;;;;6.80;2.93;;;;;;;-3.42;77.53;100725.97;5097055;28;20457;-35
2021/12/26 06:58:41;;;;;;;5.37;3.20;;;;;;;-3.62;77.27;100696.94;5096873;28;20196;-35
2021/12/26 07:01:06;;;;;;;5.50;3.13;;;;;;;-3.47;77.17;100728.22;5096971;28;20110;-35
2021/12/26 07:03:31;;;;;;;5.17;3.17;;;;;;;-3.50;77.39;100733.81;5096948;28;20043;-35
2021/12/26 07:05:57;;;;;;;4.37;2.77;;;;;;;-3.41;78.96;100736.44;5096699;28;20051;-35
2021/12/26 07:08:22;;;;;;;5.17;2.97;;;;;;;-3.35;78.76;100728.91;5096931;28;20035;-35
2021/12/26 07:10:49;;;;;;;5.03;3.03;;;;;;;-3.38;77.71;100735.31;5096285;28;20416;-35
2021/12/26 07:13:15;;;;;;;6.50;3.38;;;;;;;-3.54;78.92;100698.06;5096663;28;20039;-35
2021/12/26 07:15:40;;;;;;;6.55;3.83;;;;;;;-3.53;77.28;100715.59;5097042;28;20536;-35
2021/12/26 07:18:06;;;;;;;5.47;3.30;;;;;;;-3.48;78.20;100734.50;5096167;28;20028;-35
2021/12/26 07:20:31;;;;;;;6.07;2.88;;;;;;;-3.46;78.79;100733.38;5097091;28;20039;-35
2021/12/26 07:22:57;;;;;;;7.03;3.27;;;;;;;-3.45;78.21;100736.88;5095963;28;20127;-35
2021/12/26 07:25:22;;;;;;;6.72;3.95;;;;;;;-3.38;79.06;100722.06;5096775;28;20145;-36
2021/12/26 07:27:48;;;;;;;5.60;3.20;;;;;;;-3.30;78.68;100724.00;5095844;28;20115;-35
2021/12/26 07:30:14;;;;;;;7.53;3.47;;;;;;;-3.44;77.86;100712.91;5095939;28;20020;-35
2021/12/26 07:32:39;;;;;;;6.70;3.55;;;;;;;-3.43;78.76;100722.50;5096581;28;20058;-35
2021/12/26 07:35:05;;;;;;;7.80;3.73;;;;;;;-3.49;78.26;100712.50;5096508;28;20024;-35
2021/12/26 07:37:31;;;;;;;5.18;3.10;;;;;;;-3.41;79.12;100715.28;5096052;28;20028;-35
2021/12/26 07:39:56;;;;;;;8.70;3.27;;;;;;;-3.34;78.26;100726.09;5096506;28;20518;-35
2021/12/26 07:42:22;;;;;;;4.90;2.83;;;;;;;-3.26;79.10;100726.22;5096315;28;20040;-35
2021/12/26 07:44:47;;;;;;;5.90;3.50;;;;;;;-3.42;77.61;100726.81;5095594;28;20286;-35
2021/12/26 07:47:13;;;;;;;5.03;3.03;;;;;;;-3.37;79.33;100718.44;5096198;28;20024;-35
2021/12/26 07:49:39;;;;;;;4.57;3.05;;;;;;;-3.40;78.84;100726.69;5095865;28;20035;-35
2021/12/26 07:52:11;;;;;;;4.95;3.15;;;;;;;-3.36;78.65;100717.50;5095771;28;20032;-35
2021/12/26 07:54:37;;;;;;;6.60;3.53;;;;;;;-3.60;78.75;100686.25;5095748;28;20468;-35
2021/12/26 07:57:06;;;;;;;8.35;4.55;;;;;;;-3.50;78.35;100705.56;5095848;28;20432;-35
2021/12/26 07:59:31;;;;;;;5.70;3.00;;;;;;;-3.34;80.09;100728.75;5094233;28;20048;-35
2021/12/26 08:01:56;;;;;;;5.87;3.57;;;;;;;-3.40;79.76;100716.94;5095018;28;20031;-35
2021/12/26 08:04:22;;;;;;;6.10;3.17;;;;;;;-3.27;79.35;100737.78;5096348;28;20028;-35
2021/12/26 08:06:47;;;;;;;4.70;3.07;;;;;;;-3.22;80.63;100742.63;5095438;28;20526;-35
2021/12/26 08:09:12;;;;;;;6.37;2.87;;;;;;;-3.20;79.69;100733.56;5095518;28;20028;-35
2021/12/26 08:11:38;;;;;;;6.90;3.60;;;;;;;-3.19;78.61;100735.25;5095688;28;20388;-35
2021/12/26 08:14:03;;;;;;;9.07;3.67;;;;;;;-3.20;78.66;100728.28;5095329;28;20436;-35
2021/12/26 08:16:29;;;;;;;6.23;3.30;;;;;;;-3.16;80.09;100734.97;5095213;28;20032;-35
2021/12/26 08:18:55;;;;;;;6.43;3.45;;;;;;;-3.09;80.19;100742.31;5095913;28;20020;-35
2021/12/26 08:21:21;;;;;;;10.57;4.57;;;;;;;-3.05;79.56;100736.59;5095188;28;20073;-35
2021/12/26 08:23:46;;;;;;;5.43;2.50;;;;;;;-3.05;79.50;100735.75;5094872;28;20085;-35
2021/12/26 08:26:12;;;;;;;8.05;3.55;;;;;;;-3.11;79.40;100748.59;5094730;28;20036;-35
2021/12/26 08:28:38;;;;;;;6.75;3.17;;;;;;;-3.11;80.18;100748.59;5095585;28;20032;-35
2021/12/26 08:31:03;;;;;;;6.57;3.15;;;;;;;-3.09;80.01;100747.59;5095215;28;20103;-35
2021/12/26 08:33:29;;;;;;;5.35;3.00;;;;;;;-3.12;79.56;100725.75;5095622;28;20046;-36
2021/12/26 08:35:54;;;;;;;6.30;3.00;;;;;;;-3.08;79.61;100728.94;5095167;28;20028;-35
2021/12/26 08:38:21;;;;;;;7.27;3.00;;;;;;;-2.99;79.27;100732.53;5095319;28;20281;-35
2021/12/26 08:40:48;;;;;;;5.15;3.15;;;;;;;-3.01;78.92;100731.84;5094735;28;20039;-35
2021/12/26 08:43:14;;;;;;;5.03;3.13;;;;;;;-3.03;81.54;100702.88;5094624;28;20097;-35
2021/12/26 08:45:40;;;;;;;5.07;3.55;;;;;;;-2.78;80.88;100740.22;5094865;28;20388;-35
2021/12/26 08:48:05;;;;;;;5.30;3.20;;;;;;;-2.70;80.51;100735.03;5094339;28;20031;-35
2021/12/26 08:50:30;;;;;;;5.37;3.07;;;;;;;-2.64;80.02;100737.06;5094125;28;20075;-34
2021/12/26 08:52:56;;;;;;;5.20;3.40;;;;;;;-2.67;80.22;100718.88;5094504;28;20040;-35
2021/12/26 08:55:23;;;;;;;6.73;3.60;;;;;;;-2.69;79.10;100741.97;5094587;28;20031;-34
2021/12/26 08:57:50;;;;;;;6.13;3.15;;;;;;;-2.62;79.63;100733.31;5094775;28;20049;-36
2021/12/26 09:00:16;;;;;;;5.50;3.40;;;;;;;-2.64;79.72;100727.31;5095044;28;20024;-35
2021/12/26 09:02:41;;;;;;;;;;;;;;;-2.48;79.70;100745.22;5093764;28;20044;-35
2021/12/26 09:05:07;;;;;;;6.38;3.92;;;;;;;-2.51;79.71;100736.72;5093915;28;19908;-35
2021/12/26 09:07:33;;;;;;;8.25;3.63;;;;;;;-2.56;79.96;100717.81;5094456;28;20028;-35
2021/12/26 09:10:01;;;;;;;5.72;3.67;;;;;;;-2.60;79.06;100719.91;5093875;28;20052;-35
2021/12/26 09:12:26;;;;;;;5.03;3.00;;;;;;;-2.40;80.21;100734.69;5093277;28;20403;-35
2021/12/26 09:14:52;;;;;;;6.53;3.53;;;;;;;-2.74;79.42;100673.59;5094110;28;20135;-35
2021/12/26 09:17:17;;;;;;;6.23;4.10;;;;;;;-2.61;78.79;100707.66;5094022;28;20067;-35
2021/12/26 09:19:43;;;;;;;6.83;3.87;;;;;;;-2.33;79.13;100730.47;5094728;28;20111;-35
2021/12/26 09:22:11;;;;;;;6.97;4.10;;;;;;;-2.30;78.65;100723.22;5093954;28;20020;-35
2021/12/26 09:24:38;;;;;;;7.72;3.80;;;;;;;-2.21;79.71;100728.44;5093707;28;20028;-35
2021/12/26 09:27:04;;;;;;;6.20;3.80;;;;;;;-2.18;79.69;100716.72;5093746;28;20476;-35
2021/12/26 09:29:29;;;;;;;7.68;3.55;;;;;;;-2.16;79.79;100730.63;5093720;28;20432;-35
2021/12/26 09:31:56;;;;;;;7.83;3.57;;;;;;;-2.21;79.28;100717.00;5093787;28;20058;-35
2021/12/26 09:34:22;;;;;;;7.95;3.92;;;;;;;-2.24;79.79;100709.38;5094223;28;20060;-35
2021/12/26 09:36:47;;;;;;;7.32;4.63;;;;;;;-2.11;79.41;100734.50;5093719;28;20086;-35
2021/12/26 09:39:13;;;;;;;5.97;3.47;;;;;;;-2.11;78.70;100723.88;5093959;28;20057;-35
2021/12/26 09:41:39;;;;;;;7.85;4.20;;;;;;;-2.02;80.09;100718.69;5093719;28;20030;-35
2021/12/26 09:44:06;;;;;;;10.18;3.92;;;;;;;-1.95;79.77;100712.63;5094311;28;20187;-35
2021/12/26 09:46:33;;;;;;;5.93;3.67;;;;;;;-1.95;79.89;100714.41;5093571;28;20059;-36
2021/12/26 09:48:58;;;;;;;7.05;4.30;;;;;;;-1.85;80.09;100717.84;5093919;28;20024;-35
2021/12/26 09:51:24;;;;;;;8.43;4.40;;;;;;;-1.84;79.72;100700.94;5093240;28;20498;-35
2021/12/26 09:53:50;;;;;;;7.88;4.05;;;;;;;-1.71;80.38;100703.16;5093581;28;20031;-35
2021/12/26 09:56:16;;;;;;;10.30;4.50;;;;;;;-1.73;79.79;100718.41;5093666;28;20119;-35
2021/12/26 09:59:00;;;;;;;9.65;4.32;;;;;;;-1.65;80.21;100721.13;5094035;28;20335;-35
2021/12/26 10:01:53;;;;;;;6.78;4.32;;;;;;;-1.64;80.15;100704.25;5093905;28;20487;-35
2021/12/26 10:04:31;;;;;;;10.90;5.13;;;;;;;-1.69;79.01;100698.56;5090475;28;20047;-35
2021/12/26 10:07:03;;;;;;;10.05;5.22;;;;;;;-1.57;80.12;100715.88;5093256;28;20024;-35
2021/12/26 10:09:29;;;;;;;7.35;4.50;;;;;;;-1.56;79.62;100710.44;5093557;28;20028;-35
2021/12/26 10:11:57;;;;;;;8.13;4.93;;;;;;;-1.49;80.67;100700.03;5093549;28;20044;-35
2021/12/26 10:14:28;;;;;;;6.93;4.72;;;;;;;-1.64;80.59;100664.47;5093443;28;20461;-35
2021/12/26 10:17:04;;;;;;;7.57;4.88;;;;;;;-1.41;80.87;100697.44;5093868;28;20107;-35
2021/12/26 10:19:34;;;;;;;7.57;4.57;;;;;;;-1.34;80.97;100677.22;5091931;28;20024;-35
2021/12/26 10:22:01;;;;;;;8.63;5.22;;;;;;;-1.39;79.65;100679.53;5093613;28;20024;-35
2021/12/26 10:24:32;;;;;;;8.93;4.57;;;;;;;-1.27;81.37;100692.50;5096122;28;20036;-35
2021/12/26 10:27:00;;;;;;;10.45;5.00;;;;;;;-1.36;80.19;100667.78;5097472;28;20440;-35
2021/12/26 10:29:38;;;;;;;8.15;4.28;;;;;;;-1.25;81.33;100669.31;5097335;28;20077;-35
2021/12/26 10:32:09;;;;;;;10.98;4.85;;;;;;;-1.33;79.95;100656.84;5097493;28;20516;-35
2021/12/26 10:34:51;;;;;;;8.63;5.20;;;;;;;-1.26;80.78;100660.53;5097211;28;20024;-35
2021/12/26 10:37:21;;;;;;;9.25;5.13;;;;;;;-1.24;80.04;100663.03;5097889;28;20032;-35
2021/12/26 10:39:48;;;;;;;7.68;5.05;;;;;;;-1.13;82.14;100657.41;5097531;28;20036;-35
2021/12/26 10:42:20;;;;;;;9.50;5.57;;;;;;;-1.23;80.61;100652.25;5097817;28;20368;-35
2021/12/26 10:44:54;;;;;;;7.70;5.38;;;;;;;-1.13;80.85;100649.47;5096718;28;20028;-35
2021/12/26 10:47:22;;;;;;;9.10;5.45;;;;;;;-1.21;82.15;100623.75;5097370;28;20035;-35
2021/12/26 10:50:00;;;;;;;10.30;5.32;;;;;;;-0.97;80.84;100657.50;5097720;28;20422;-35
2021/12/26 10:52:36;;;;;;;8.70;5.18;;;;;;;-1.06;81.04;100637.22;5097073;28;20407;-35
2021/12/26 10:55:07;;;;;;;8.13;4.95;;;;;;;-0.89;81.72;100646.91;5096581;28;20488;-35
2021/12/26 10:57:38;;;;;;;11.13;5.82;;;;;;;-0.90;80.65;100650.56;5096930;28;20482;-35
2021/12/26 11:00:03;;;;;;;8.30;5.85;;;;;;;-0.96;80.81;100648.53;5096730;28;20107;-35
2021/12/26 11:02:32;;;;;;;9.20;5.80;;;;;;;-0.94;81.84;100662.47;5096347;28;20178;-35
2021/12/26 11:05:16;;;;;;;12.57;6.15;;;;;;;-0.93;81.31;100653.50;5097069;28;20456;-35
2021/12/26 11:07:58;;;;;;;8.35;5.45;;;;;;;-0.91;80.93;100653.38;5096775;28;20035;-35
2021/12/26 11:10:58;;;;;;;10.18;6.00;;;;;;;-0.87;81.47;100644.94;5096872;28;20468;-35
2021/12/26 11:13:32;;;;;;;7.95;5.55;;;;;;;-0.84;80.99;100641.09;5034446;28;20523;-36
2021/12/26 11:16:04;;;;;;;8.77;5.43;;;;;;;-0.72;82.44;100642.47;5033990;28;20079;-35
2021/12/26 11:18:29;;;;;;;9.10;5.35;;;;;;;-0.85;81.72;100604.94;5034050;28;20065;-35
2021/12/26 11:21:03;;;;;;;11.17;6.60;;;;;;;-0.74;81.04;100630.34;5033693;28;20465;-35
2021/12/26 11:23:32;;;;;;;10.48;6.00;;;;;;;-0.73;82.69;100611.63;5033612;28;20140;-35
2021/12/26 11:26:00;;;;;;;10.20;6.28;;;;;;;-0.69;80.85;100622.72;5033857;28;20375;-35
2021/12/26 11:28:30;;;;;;;10.25;5.90;;;;;;;-0.68;80.71;100637.66;5033463;28;20040;-35
2021/12/26 11:30:59;;;;;;;8.93;6.32;;;;;;;-0.69;80.70;100633.34;5034055;28;20033;-35